Main page
METAR-TAF:

METAR-TAF

Airports :

Rome-Fiumicino, Italy

Leonardo da Vinci–Fiumicino Airport

latitude: 41-48N, longitude: 012-14E, elevation: 2 m

Current weather observation

The report was made 30 minutes ago, at 11:20 UTC
Wind 13 kt from the Southwest
Temperature 30°C
Humidity 43%
Pressure 1014 hPa
Visibility 10 km or more
no clouds below 1500 m and no cumulonimbus

METAR: LIRF 211120Z 23013KT CAVOK 30/16 Q1014 NOSIG

Time: 13:50 (11:50 UTC)

Forecast

The report was made 50 minutes ago, at 11:00 UTC
Forecast valid from 21 at 12 UTC to 22 at 18 UTC
Wind 14 kt from the West
Visibility 10 km or more
no clouds below 1500 m and no cumulonimbus
Becoming
from 21 at 19 UTC to 21 at 21 UTC
Wind 8 kt from the Northeast
Becoming
from 22 at 07 UTC to 22 at 09 UTC
Wind 12 kt from the West

TAF: LIRF 211100Z 2112/2218 27014KT CAVOK BECMG 2119/2121 04008KT BECMG 2207/2209 26012KT

Weather observations and forecasts of more than 4000 airports (METAR and TAF reports).

The available stations are represented by yellow and red dots on the map.

Hover mouse over dot to see the name of the station.

Then click to see weather observations and forecasts.

To change the map : click on the green buttons with a black cross to zoom in, on the green button with a dash to zoom out, or on the green arrows for adjacent maps.


METAR-TAF: